Time;durP1;ratioP1;P1;durP2;ratioP2;P2;SDS_P1;SDS_P2;PMS_P1;PMS_P2;Temp;Humidity;BMP_temperature;BMP_pressure;BME280_temperature;BME280_humidity;BME280_pressure;Samples;Min_cycle;Max_cycle;Signal;HPM_P1;HPM_P2
2022/03/22 00:00:59;;;;;;;25.73;17.88;;;9.90;99.90;;;;;;4917973;29;20040;-86
2022/03/22 00:03:25;;;;;;;24.30;17.83;;;9.80;99.90;;;;;;4917406;29;20130;-85
2022/03/22 00:05:54;;;;;;;24.20;17.85;;;9.90;99.90;;;;;;4917977;29;20067;-86
2022/03/22 00:08:21;;;;;;;23.60;17.15;;;9.90;99.90;;;;;;4917963;29;20123;-86
2022/03/22 00:10:47;;;;;;;23.77;18.02;;;9.90;99.90;;;;;;4919352;29;20036;-85
2022/03/22 00:13:13;;;;;;;23.77;17.58;;;9.90;99.90;;;;;;4918431;29;20360;-86
2022/03/22 00:15:39;;;;;;;25.00;17.02;;;9.90;99.90;;;;;;4919795;29;20048;-86
2022/03/22 00:18:05;;;;;;;24.67;17.35;;;9.90;99.90;;;;;;4921086;29;20032;-86
2022/03/22 00:20:31;;;;;;;22.05;16.48;;;9.90;99.90;;;;;;4921262;29;20035;-85
2022/03/22 00:22:59;;;;;;;22.42;16.55;;;9.90;99.90;;;;;;4925478;29;20119;-85
2022/03/22 00:25:24;;;;;;;22.70;16.48;;;9.90;99.90;;;;;;4937422;29;20043;-86
2022/03/22 00:27:52;;;;;;;24.42;17.55;;;9.90;99.90;;;;;;4941426;29;20044;-86
2022/03/22 00:30:23;;;;;;;25.10;18.27;;;9.90;99.90;;;;;;4941549;29;20065;-86
2022/03/22 00:32:54;;;;;;;22.90;17.35;;;9.90;99.90;;;;;;4938102;29;20153;-87
2022/03/22 00:35:26;;;;;;;23.45;16.75;;;9.90;99.90;;;;;;4939142;29;20122;-86
2022/03/22 00:37:53;;;;;;;23.27;16.88;;;9.90;99.90;;;;;;4941230;29;20053;-86
2022/03/22 00:40:21;;;;;;;22.08;17.05;;;9.80;99.90;;;;;;4942127;29;20036;-85
2022/03/22 00:42:49;;;;;;;22.30;17.35;;;9.80;99.90;;;;;;4925902;29;20020;-86
2022/03/22 00:45:16;;;;;;;22.90;17.00;;;9.90;99.90;;;;;;4941526;29;20031;-86
2022/03/22 00:47:44;;;;;;;20.38;15.77;;;9.80;99.90;;;;;;4940218;29;20039;-86
2022/03/22 00:50:10;;;;;;;21.60;15.32;;;9.80;99.90;;;;;;4940415;29;20037;-86
2022/03/22 00:52:36;;;;;;;22.42;16.75;;;9.70;99.90;;;;;;4939713;29;20068;-86
2022/03/22 00:55:05;;;;;;;21.95;16.88;;;9.70;99.90;;;;;;4939145;29;20028;-86
2022/03/22 00:57:33;;;;;;;22.38;16.75;;;9.70;99.90;;;;;;4928153;29;20131;-86
2022/03/22 01:00:04;;;;;;;23.63;16.10;;;9.60;99.90;;;;;;4927247;29;20047;-86
2022/03/22 01:02:34;;;;;;;22.73;17.05;;;9.60;99.90;;;;;;4918184;29;20048;-86
2022/03/22 01:05:02;;;;;;;21.80;16.38;;;9.50;99.90;;;;;;4921560;29;20037;-85
2022/03/22 01:07:27;;;;;;;23.92;16.67;;;9.50;99.90;;;;;;4917678;29;20045;-87
2022/03/22 01:09:53;;;;;;;22.55;16.35;;;9.40;99.90;;;;;;4918523;29;20032;-85
2022/03/22 01:12:19;;;;;;;22.73;16.77;;;9.40;99.90;;;;;;4919958;29;20044;-85
2022/03/22 01:14:44;;;;;;;23.52;17.13;;;9.40;99.90;;;;;;4917953;29;20051;-86
2022/03/22 01:17:10;;;;;;;23.50;16.85;;;9.40;99.90;;;;;;4919077;29;20043;-86
2022/03/22 01:19:38;;;;;;;27.48;17.27;;;9.30;99.90;;;;;;4917006;29;20396;-85
2022/03/22 01:22:05;;;;;;;24.77;17.95;;;9.30;99.90;;;;;;4917119;29;20040;-86
2022/03/22 01:24:31;;;;;;;25.02;17.67;;;9.30;99.90;;;;;;4900922;29;20040;-86
2022/03/22 01:26:57;;;;;;;20.88;17.00;;;9.30;99.90;;;;;;4918061;29;20099;-86
2022/03/22 01:29:23;;;;;;;21.95;16.52;;;9.30;99.90;;;;;;4916852;29;20043;-87
2022/03/22 01:31:49;;;;;;;25.13;16.77;;;9.20;99.90;;;;;;4916302;29;20032;-86
2022/03/22 01:34:15;;;;;;;22.92;17.02;;;9.20;99.90;;;;;;4917558;29;20035;-87
2022/03/22 01:36:41;;;;;;;23.60;17.23;;;9.10;99.90;;;;;;4916237;29;20391;-86
2022/03/22 01:39:07;;;;;;;24.30;18.17;;;9.10;99.90;;;;;;4916128;29;20047;-85
2022/03/22 01:41:34;;;;;;;24.23;17.33;;;9.10;99.90;;;;;;4915873;29;20088;-86
2022/03/22 01:44:00;;;;;;;25.77;19.05;;;9.00;99.90;;;;;;4915930;29;20407;-86
2022/03/22 01:46:27;;;;;;;25.15;18.58;;;9.00;99.90;;;;;;4915591;29;20040;-86
2022/03/22 01:48:53;;;;;;;24.38;18.92;;;9.00;99.90;;;;;;4914974;29;20050;-85
2022/03/22 01:51:22;;;;;;;28.15;20.15;;;9.00;99.90;;;;;;4915591;29;20079;-85
2022/03/22 01:53:48;;;;;;;31.60;19.25;;;8.90;99.90;;;;;;4916862;29;20104;-84
2022/03/22 01:56:14;;;;;;;24.20;18.05;;;8.90;99.90;;;;;;4915480;29;20032;-85
2022/03/22 01:58:41;;;;;;;25.23;17.27;;;8.90;99.90;;;;;;4915636;29;20063;-85
2022/03/22 02:06:36;;;;;;;19.50;15.15;;;8.90;99.90;;;;;;4916829;29;20096;-86
2022/03/22 02:09:03;;;;;;;22.15;16.48;;;8.80;99.90;;;;;;4915442;29;20483;-85
2022/03/22 02:11:29;;;;;;;21.10;15.90;;;8.80;99.90;;;;;;4916741;29;20036;-86
2022/03/22 02:13:56;;;;;;;21.67;16.55;;;8.80;99.90;;;;;;4916624;29;20055;-86
2022/03/22 02:16:22;;;;;;;20.50;16.15;;;8.80;99.90;;;;;;4915349;29;20479;-85
2022/03/22 02:18:50;;;;;;;21.13;15.52;;;8.70;99.90;;;;;;4915437;29;20047;-86
2022/03/22 02:21:18;;;;;;;21.55;15.00;;;8.70;99.90;;;;;;4916385;29;20502;-85
2022/03/22 02:23:51;;;;;;;21.83;15.95;;;8.70;99.90;;;;;;4916794;29;20035;-85
2022/03/22 02:26:18;;;;;;;22.73;16.20;;;8.70;99.90;;;;;;4916538;29;20032;-85
2022/03/22 02:28:44;;;;;;;22.02;16.35;;;8.60;99.90;;;;;;4915256;29;20123;-85
2022/03/22 02:31:10;;;;;;;21.13;15.35;;;8.60;99.90;;;;;;4915110;29;20076;-86
2022/03/22 02:33:40;;;;;;;20.27;15.48;;;8.60;99.90;;;;;;4915823;29;20067;-86
2022/03/22 02:36:06;;;;;;;21.63;15.80;;;8.60;99.90;;;;;;4899942;29;20028;-86
2022/03/22 02:38:31;;;;;;;22.30;15.85;;;8.50;99.90;;;;;;4915763;29;20050;-85
2022/03/22 02:40:57;;;;;;;22.33;15.75;;;8.40;99.90;;;;;;4916441;29;20036;-85
2022/03/22 02:43:23;;;;;;;21.02;15.43;;;8.40;99.90;;;;;;4899582;29;20040;-85
2022/03/22 02:45:49;;;;;;;21.80;15.80;;;8.30;99.90;;;;;;4915440;29;20467;-85
2022/03/22 02:48:15;;;;;;;21.52;16.67;;;8.30;99.90;;;;;;4916523;29;20092;-85
2022/03/22 02:50:40;;;;;;;22.55;17.35;;;8.20;99.90;;;;;;4916464;29;20024;-84
2022/03/22 02:53:06;;;;;;;23.95;16.58;;;8.10;99.90;;;;;;4916569;29;20041;-85
2022/03/22 02:55:32;;;;;;;21.80;16.50;;;8.10;99.90;;;;;;4914655;29;20040;-85
2022/03/22 02:57:58;;;;;;;22.92;16.52;;;8.00;99.90;;;;;;4914967;29;20032;-85
2022/03/22 03:00:24;;;;;;;20.45;16.65;;;8.00;99.90;;;;;;4918934;29;20028;-86
2022/03/22 03:02:53;;;;;;;21.30;16.08;;;7.90;99.90;;;;;;4919532;29;20562;-86
2022/03/22 03:05:20;;;;;;;22.73;16.70;;;7.80;99.90;;;;;;4902700;29;20036;-86
2022/03/22 03:07:47;;;;;;;21.40;16.60;;;7.80;99.90;;;;;;4918214;29;20099;-85
2022/03/22 03:10:13;;;;;;;20.55;15.38;;;7.80;99.90;;;;;;4902540;29;20043;-86
2022/03/22 03:12:39;;;;;;;20.63;14.88;;;7.80;99.90;;;;;;4918437;29;20044;-86
2022/03/22 03:15:06;;;;;;;21.65;15.50;;;7.70;99.90;;;;;;4918109;29;20119;-86
2022/03/22 03:17:33;;;;;;;22.48;15.77;;;7.70;99.90;;;;;;4918187;29;20040;-85
2022/03/22 03:19:59;;;;;;;23.17;16.65;;;7.60;99.90;;;;;;4918274;29;20403;-86
2022/03/22 03:22:24;;;;;;;22.92;16.40;;;7.60;99.90;;;;;;4919610;29;20036;-85
2022/03/22 03:24:50;;;;;;;21.08;16.25;;;7.60;99.90;;;;;;4902158;29;20104;-85
2022/03/22 03:27:16;;;;;;;21.50;15.85;;;7.50;99.90;;;;;;4917956;29;20051;-85
2022/03/22 03:29:42;;;;;;;22.55;15.98;;;7.50;99.90;;;;;;4919048;29;20447;-85
2022/03/22 03:32:08;;;;;;;21.92;16.00;;;7.50;99.90;;;;;;4919255;29;20032;-86
2022/03/22 03:34:34;;;;;;;21.42;16.45;;;7.40;99.90;;;;;;4917874;29;20036;-85
2022/03/22 03:37:00;;;;;;;20.15;16.40;;;7.40;99.90;;;;;;4917949;29;20039;-85
2022/03/22 03:39:25;;;;;;;20.55;14.80;;;7.40;99.90;;;;;;4917992;29;20079;-86
2022/03/22 03:41:54;;;;;;;23.00;16.13;;;7.40;99.90;;;;;;4917804;29;20468;-85
2022/03/22 03:47:23;;;;;;;19.83;14.93;;;7.40;99.90;;;;;;4929176;29;20041;-85
2022/03/22 03:49:54;;;;;;;20.23;14.88;;;7.30;99.90;;;;;;4902265;29;20456;-85
2022/03/22 03:52:25;;;;;;;20.85;15.73;;;7.30;99.90;;;;;;4918769;29;20032;-85
2022/03/22 03:54:53;;;;;;;20.92;15.70;;;7.30;99.90;;;;;;4917227;29;20048;-84
2022/03/22 03:57:20;;;;;;;22.55;15.48;;;7.20;99.90;;;;;;4917746;29;20083;-85
2022/03/22 03:59:47;;;;;;;20.73;15.27;;;7.20;99.90;;;;;;4918862;29;20032;-85
2022/03/22 04:02:14;;;;;;;20.52;15.32;;;7.20;99.90;;;;;;4918226;29;20507;-85
2022/03/22 04:04:40;;;;;;;20.75;15.15;;;7.20;99.90;;;;;;4917452;29;20091;-84
2022/03/22 04:07:08;;;;;;;21.77;16.08;;;7.20;99.90;;;;;;4918481;29;20034;-85
2022/03/22 04:09:35;;;;;;;21.85;15.77;;;7.20;99.90;;;;;;4918536;29;20495;-85
2022/03/22 04:12:02;;;;;;;21.85;15.50;;;7.20;99.90;;;;;;4916432;29;20055;-85
2022/03/22 04:14:28;;;;;;;21.90;15.57;;;7.10;99.90;;;;;;4917150;29;20120;-85
2022/03/22 04:16:56;;;;;;;21.40;15.55;;;7.10;99.90;;;;;;4918356;29;20463;-85
2022/03/22 04:19:22;;;;;;;21.02;15.77;;;7.00;99.90;;;;;;4918386;29;20091;-85
2022/03/22 04:21:48;;;;;;;20.77;15.13;;;7.10;99.90;;;;;;4916848;29;20039;-87
2022/03/22 04:24:13;;;;;;;19.20;14.07;;;7.00;99.90;;;;;;4901081;29;20048;-85
2022/03/22 04:26:42;;;;;;;21.10;15.07;;;7.00;99.90;;;;;;4916742;29;20031;-85
2022/03/22 04:34:41;;;;;;;19.38;14.30;;;6.90;99.90;;;;;;4918102;29;20059;-85
2022/03/22 04:37:08;;;;;;;21.85;14.70;;;6.90;99.90;;;;;;4916696;29;20064;-86
2022/03/22 04:39:35;;;;;;;21.20;15.10;;;6.90;99.90;;;;;;4900941;29;20391;-85
2022/03/22 04:42:02;;;;;;;20.20;14.43;;;6.90;99.90;;;;;;4916582;29;20123;-85
2022/03/22 04:44:28;;;;;;;19.92;14.43;;;6.90;99.90;;;;;;4916791;29;20537;-85
2022/03/22 04:46:55;;;;;;;20.48;15.07;;;6.90;99.90;;;;;;4917763;29;20033;-85
2022/03/22 04:49:23;;;;;;;24.98;15.00;;;6.80;99.90;;;;;;4917702;29;20044;-85
2022/03/22 04:57:18;;;;;;;20.10;14.15;;;6.80;99.90;;;;;;4917767;29;20050;-84
2022/03/22 04:59:44;;;;;;;21.45;15.40;;;6.80;99.90;;;;;;4900732;29;20036;-85
2022/03/22 05:02:10;;;;;;;20.80;14.70;;;6.80;99.90;;;;;;4917280;29;20055;-88
2022/03/22 05:04:38;;;;;;;19.45;14.25;;;6.90;99.90;;;;;;4917130;29;20059;-85
2022/03/22 05:07:04;;;;;;;20.70;14.82;;;6.90;99.90;;;;;;4900283;29;20032;-85
2022/03/22 05:09:31;;;;;;;22.33;14.95;;;7.00;99.90;;;;;;4916152;29;20514;-86
2022/03/22 05:11:58;;;;;;;21.90;15.07;;;7.00;99.90;;;;;;4916236;29;20036;-85
2022/03/22 05:14:24;;;;;;;20.67;14.85;;;7.00;99.90;;;;;;4915924;29;20228;-85
2022/03/22 05:16:50;;;;;;;18.70;14.13;;;7.10;99.90;;;;;;4916830;29;20036;-85
2022/03/22 05:19:16;;;;;;;20.45;14.93;;;7.10;99.90;;;;;;4915953;29;20035;-85
2022/03/22 05:21:42;;;;;;;19.15;14.20;;;7.10;99.90;;;;;;4915596;29;20033;-85
2022/03/22 05:24:08;;;;;;;20.10;14.75;;;7.20;99.90;;;;;;4915423;29;20031;-85
2022/03/22 05:26:34;;;;;;;19.60;14.10;;;7.20;99.90;;;;;;4916001;29;20497;-85
2022/03/22 05:29:03;;;;;;;19.42;14.45;;;7.20;99.90;;;;;;4899731;29;20131;-85
2022/03/22 05:31:29;;;;;;;18.67;13.85;;;7.30;99.90;;;;;;4916916;29;20036;-85
2022/03/22 05:33:54;;;;;;;20.77;15.18;;;7.30;99.90;;;;;;4899657;29;20455;-86
2022/03/22 05:36:20;;;;;;;20.27;14.57;;;7.30;99.90;;;;;;4917021;29;20067;-86
2022/03/22 05:38:46;;;;;;;18.95;13.85;;;7.30;99.90;;;;;;4916997;29;20040;-86
2022/03/22 05:41:13;;;;;;;20.60;14.57;;;7.40;99.90;;;;;;4916842;29;20042;-86
2022/03/22 05:43:39;;;;;;;20.48;14.80;;;7.40;99.90;;;;;;4915953;29;20126;-86
2022/03/22 05:46:05;;;;;;;20.70;14.75;;;7.50;99.90;;;;;;4913273;29;20143;-86
2022/03/22 05:48:31;;;;;;;19.05;14.07;;;7.50;99.90;;;;;;4890013;29;20076;-86
2022/03/22 05:50:57;;;;;;;19.35;15.15;;;7.50;99.90;;;;;;4915247;29;20032;-86
2022/03/22 05:53:23;;;;;;;21.08;14.13;;;7.60;99.90;;;;;;4892973;29;20123;-85
2022/03/22 05:55:49;;;;;;;21.25;14.43;;;7.70;99.90;;;;;;4906128;29;20043;-86
2022/03/22 05:58:15;;;;;;;18.52;13.93;;;7.90;99.90;;;;;;4899265;29;20040;-86
2022/03/22 06:00:41;;;;;;;22.30;15.57;;;7.90;99.90;;;;;;4899202;29;20047;-87
2022/03/22 06:03:08;;;;;;;18.70;14.10;;;8.00;99.90;;;;;;4914689;29;20094;-87
2022/03/22 06:05:34;;;;;;;21.63;14.93;;;8.10;99.90;;;;;;4899417;29;20131;-88
2022/03/22 06:08:00;;;;;;;21.83;15.38;;;8.10;99.90;;;;;;4915923;29;20493;-87
2022/03/22 06:10:28;;;;;;;21.92;15.88;;;8.20;99.90;;;;;;4894953;29;20402;-87
2022/03/22 06:12:56;;;;;;;20.05;14.35;;;8.30;99.90;;;;;;4895230;29;20100;-86
2022/03/22 06:15:24;;;;;;;21.55;15.70;;;8.30;99.90;;;;;;4895051;29;20040;-84
2022/03/22 06:17:58;;;;;;;19.55;14.65;;;8.40;99.90;;;;;;4903620;29;20041;-85
2022/03/22 06:20:26;;;;;;;21.88;15.30;;;8.40;99.90;;;;;;4913832;29;20132;-87
2022/03/22 06:22:53;;;;;;;21.00;15.85;;;8.50;99.90;;;;;;4902144;29;20040;-85
2022/03/22 06:25:19;;;;;;;20.30;14.30;;;8.50;99.90;;;;;;4915279;29;20029;-85
2022/03/22 06:27:48;;;;;;;20.67;14.18;;;8.60;99.90;;;;;;4893708;29;20053;-86
2022/03/22 06:30:15;;;;;;;20.65;15.15;;;8.60;99.90;;;;;;4865316;29;20044;-86
2022/03/22 06:32:49;;;;;;;23.27;15.85;;;8.70;99.90;;;;;;4891838;29;20108;-87
2022/03/22 06:35:22;;;;;;;19.05;14.32;;;8.70;99.90;;;;;;4919670;29;20534;-87
2022/03/22 06:37:50;;;;;;;;;;;8.80;99.90;;;;;;4920035;29;20499;-87
2022/03/22 06:40:17;;;;;;;18.70;13.80;;;8.80;99.90;;;;;;4903490;29;19954;-85
2022/03/22 06:42:44;;;;;;;19.73;14.18;;;8.90;99.90;;;;;;4899893;29;20036;-85
2022/03/22 06:45:11;;;;;;;20.90;14.85;;;9.00;99.90;;;;;;4923461;29;20036;-86
2022/03/22 06:47:39;;;;;;;22.80;14.75;;;9.00;99.90;;;;;;4899407;29;20500;-86
2022/03/22 06:50:06;;;;;;;19.60;14.07;;;9.10;99.90;;;;;;4899684;29;20083;-85
2022/03/22 06:52:33;;;;;;;22.65;16.48;;;9.20;99.90;;;;;;4902760;29;20119;-87
2022/03/22 06:54:59;;;;;;;19.92;15.52;;;9.40;99.90;;;;;;4899543;29;20028;-85
2022/03/22 06:57:28;;;;;;;22.08;15.75;;;9.40;99.90;;;;;;4884548;29;20032;-85
2022/03/22 06:59:55;;;;;;;23.25;16.38;;;9.50;99.90;;;;;;4901496;29;20131;-86
2022/03/22 07:02:21;;;;;;;19.77;14.75;;;9.60;99.90;;;;;;4899742;29;20085;-87
2022/03/22 07:04:48;;;;;;;26.30;17.92;;;9.70;99.90;;;;;;4884279;29;20032;-88
2022/03/22 07:07:15;;;;;;;27.65;19.50;;;9.80;99.90;;;;;;4911997;29;20032;-86
2022/03/22 07:09:41;;;;;;;24.23;17.52;;;10.00;99.90;;;;;;4908222;29;20040;-87
2022/03/22 07:12:07;;;;;;;25.33;17.70;;;10.10;99.90;;;;;;4921028;29;20119;-89
2022/03/22 07:14:33;;;;;;;24.35;18.08;;;10.20;99.90;;;;;;4888750;29;20087;-86
2022/03/22 07:16:59;;;;;;;22.48;16.30;;;10.30;99.90;;;;;;4920979;29;20111;-86
2022/03/22 07:19:24;;;;;;;24.98;19.73;;;10.40;99.90;;;;;;4920752;29;20044;-87
2022/03/22 07:21:50;;;;;;;26.95;20.52;;;10.50;99.90;;;;;;4920586;29;20100;-85
2022/03/22 07:24:18;;;;;;;25.35;18.98;;;10.60;99.90;;;;;;4922292;29;20044;-84
2022/03/22 07:26:45;;;;;;;29.98;21.60;;;10.70;99.90;;;;;;4900616;29;20193;-85
2022/03/22 07:29:12;;;;;;;30.52;21.02;;;10.70;99.90;;;;;;4912067;29;20051;-86
2022/03/22 07:31:39;;;;;;;28.17;20.38;;;10.80;99.90;;;;;;4923965;29;20081;-88
2022/03/22 07:34:11;;;;;;;28.40;19.60;;;10.90;99.90;;;;;;4930465;29;20040;-90
2022/03/22 07:36:39;;;;;;;25.75;18.52;;;11.00;99.90;;;;;;4911813;29;20048;-89
2022/03/22 07:39:08;;;;;;;26.00;19.60;;;11.00;99.90;;;;;;4913290;29;20084;-88
2022/03/22 07:41:34;;;;;;;27.85;20.20;;;11.10;99.90;;;;;;4914514;29;20029;-90
2022/03/22 07:44:01;;;;;;;24.77;18.92;;;11.20;99.90;;;;;;4915815;29;20051;-87
2022/03/22 07:46:27;;;;;;;30.90;20.40;;;11.20;99.90;;;;;;4917361;29;20043;-90
2022/03/22 07:48:53;;;;;;;27.58;20.73;;;11.30;99.90;;;;;;4941463;28;20063;-88
2022/03/22 07:54:04;;;;;;;30.65;21.25;;;11.30;99.90;;;;;;4943034;28;20036;-86
2022/03/22 07:56:31;;;;;;;27.77;19.02;;;11.40;99.90;;;;;;4926359;29;20075;-87
2022/03/22 07:58:57;;;;;;;28.58;19.42;;;11.40;99.90;;;;;;4925528;29;20023;-85
2022/03/22 08:01:24;;;;;;;33.28;21.67;;;11.60;99.90;;;;;;4942917;28;20017;-86
2022/03/22 08:03:50;;;;;;;29.92;21.55;;;11.60;99.90;;;;;;4926572;29;20012;-87
2022/03/22 08:06:16;;;;;;;24.65;18.70;;;11.60;99.90;;;;;;4924744;29;20020;-89
2022/03/22 08:08:44;;;;;;;25.42;18.77;;;11.60;99.90;;;;;;4926782;28;20036;-87
2022/03/22 08:11:10;;;;;;;24.42;18.45;;;11.70;99.90;;;;;;4941987;28;20047;-88
2022/03/22 08:13:36;;;;;;;26.10;17.95;;;11.70;99.90;;;;;;4921397;29;20108;-88
2022/03/22 08:16:04;;;;;;;26.13;19.05;;;11.80;99.90;;;;;;4885595;29;20045;-89
2022/03/22 08:18:30;;;;;;;28.05;19.20;;;11.80;99.90;;;;;;4920284;29;20025;-89
2022/03/22 08:20:56;;;;;;;29.67;21.77;;;11.80;99.90;;;;;;4910148;29;20103;-88
2022/03/22 08:23:22;;;;;;;25.98;19.15;;;11.90;99.90;;;;;;4905807;29;20032;-88
2022/03/22 08:25:49;;;;;;;24.13;18.65;;;11.90;99.90;;;;;;4920399;29;20111;-89
2022/03/22 08:28:16;;;;;;;24.42;18.15;;;12.00;99.90;;;;;;4902195;29;20534;-88
2022/03/22 08:30:42;;;;;;;23.48;17.40;;;12.10;99.90;;;;;;4914687;29;20136;-88
2022/03/22 08:33:09;;;;;;;26.58;18.98;;;12.20;99.90;;;;;;4900483;29;20041;-88
2022/03/22 08:35:42;;;;;;;25.08;17.85;;;12.30;99.90;;;;;;4901342;29;20040;-85
2022/03/22 08:38:08;;;;;;;26.90;20.05;;;12.40;99.90;;;;;;4900100;29;20044;-87
2022/03/22 08:40:34;;;;;;;23.65;17.90;;;12.40;99.90;;;;;;4901771;29;20040;-88
2022/03/22 08:43:02;;;;;;;24.05;16.77;;;12.50;99.90;;;;;;4889833;29;20075;-87
2022/03/22 08:45:30;;;;;;;23.67;17.10;;;12.60;99.90;;;;;;4893748;29;20029;-88
2022/03/22 08:47:55;;;;;;;21.48;15.20;;;12.70;99.90;;;;;;4884244;29;20052;-87
2022/03/22 08:50:23;;;;;;;20.70;15.65;;;12.80;99.90;;;;;;4883788;29;20035;-89
2022/03/22 08:52:50;;;;;;;21.98;17.40;;;12.90;99.90;;;;;;4889585;29;20039;-87
2022/03/22 08:55:18;;;;;;;29.73;20.35;;;13.00;99.90;;;;;;4890430;29;20036;-87
2022/03/22 08:57:46;;;;;;;25.92;19.13;;;13.00;99.90;;;;;;4899186;29;20033;-88
2022/03/22 09:00:14;;;;;;;27.35;18.65;;;13.10;99.90;;;;;;4885367;29;20035;-89
2022/03/22 09:02:41;;;;;;;23.15;17.50;;;13.20;99.90;;;;;;4914607;29;20048;-88
2022/03/22 09:07:53;;;;;;;25.13;19.10;;;13.40;99.90;;;;;;4913206;29;20046;-87
2022/03/22 09:10:22;;;;;;;23.88;17.63;;;13.50;99.90;;;;;;4899591;29;20033;-88
2022/03/22 09:12:49;;;;;;;29.67;20.40;;;13.60;99.90;;;;;;4903033;29;20040;-88
2022/03/22 09:15:16;;;;;;;30.40;20.90;;;13.70;99.90;;;;;;4897696;29;20036;-90
2022/03/22 09:17:41;;;;;;;28.48;20.35;;;13.80;99.90;;;;;;4911056;29;20035;-87
2022/03/22 09:20:08;;;;;;;25.65;18.92;;;13.90;99.70;;;;;;4897016;29;20040;-86
2022/03/22 09:22:34;;;;;;;25.80;19.05;;;14.00;99.90;;;;;;4900083;29;20031;-90
2022/03/22 09:25:01;;;;;;;29.10;18.38;;;14.10;99.90;;;;;;4907044;29;20048;-88
2022/03/22 09:27:27;;;;;;;24.08;18.13;;;14.30;99.90;;;;;;4899447;29;20163;-88
2022/03/22 09:29:53;;;;;;;27.95;19.88;;;14.40;99.90;;;;;;4900729;29;20037;-90
2022/03/22 09:32:19;;;;;;;27.25;19.45;;;14.50;99.40;;;;;;4899857;29;20032;-87
2022/03/22 09:34:44;;;;;;;26.13;19.67;;;14.60;99.10;;;;;;4897733;29;20047;-89
2022/03/22 09:37:10;;;;;;;31.77;20.33;;;14.80;99.00;;;;;;4898238;29;20033;-89
2022/03/22 09:39:38;;;;;;;25.65;18.38;;;15.00;98.50;;;;;;4883215;29;20112;-88
2022/03/22 09:42:06;;;;;;;22.35;16.83;;;15.10;98.50;;;;;;4899559;29;20048;-88
2022/03/22 09:44:34;;;;;;;25.35;18.88;;;15.20;98.70;;;;;;4882572;29;20088;-88
2022/03/22 09:47:03;;;;;;;23.90;17.27;;;15.30;98.40;;;;;;4906422;29;20040;-89
2022/03/22 09:49:29;;;;;;;25.80;18.17;;;15.50;98.70;;;;;;4907572;29;20632;-87
2022/03/22 09:51:55;;;;;;;24.08;18.85;;;16.10;98.90;;;;;;4912054;29;20088;-86
2022/03/22 09:54:22;;;;;;;22.63;17.77;;;17.30;97.50;;;;;;4900962;29;20047;-86
2022/03/22 09:56:49;;;;;;;22.88;16.25;;;18.60;96.20;;;;;;4900221;29;20024;-88
2022/03/22 09:59:17;;;;;;;20.33;15.30;;;19.80;95.80;;;;;;4917990;29;20495;-86
2022/03/22 10:01:44;;;;;;;18.50;13.25;;;20.80;94.90;;;;;;4898501;29;20092;-88
2022/03/22 10:04:13;;;;;;;18.40;14.02;;;21.70;94.50;;;;;;4881022;29;20085;-89
2022/03/22 10:07:02;;;;;;;19.27;14.18;;;22.40;93.10;;;;;;4916121;29;20479;-88
2022/03/22 10:09:36;;;;;;;16.77;12.88;;;22.90;92.10;;;;;;4918685;29;20040;-87
2022/03/22 10:12:03;;;;;;;15.82;12.48;;;23.50;91.40;;;;;;4900970;29;20404;-89
2022/03/22 10:14:39;;;;;;;17.73;13.93;;;24.00;90.90;;;;;;4903818;29;20041;-86
2022/03/22 10:17:17;;;;;;;17.02;14.02;;;24.40;90.10;;;;;;4919722;29;20082;-87
2022/03/22 10:19:47;;;;;;;21.02;16.80;;;24.80;88.40;;;;;;4921550;29;20047;-87
2022/03/22 10:22:13;;;;;;;16.80;14.32;;;25.00;84.20;;;;;;4903957;29;20095;-85
2022/03/22 10:24:47;;;;;;;18.15;15.40;;;25.20;83.60;;;;;;4914901;29;20068;-85
2022/03/22 10:27:28;;;;;;;20.52;15.73;;;25.50;82.10;;;;;;4913866;29;20399;-88
2022/03/22 10:29:55;;;;;;;19.27;15.48;;;25.70;81.20;;;;;;4911041;29;20040;-89
2022/03/22 10:32:35;;;;;;;16.25;14.02;;;25.70;78.90;;;;;;4919225;29;20057;-89
2022/03/22 10:35:12;;;;;;;19.70;13.77;;;25.90;78.10;;;;;;4908000;29;20044;-90
2022/03/22 10:37:41;;;;;;;16.42;12.98;;;26.10;77.60;;;;;;4920748;29;20505;-89
2022/03/22 10:40:23;;;;;;;16.52;13.13;;;26.30;77.00;;;;;;4920249;29;20032;-88
2022/03/22 10:42:55;;;;;;;18.25;12.68;;;26.60;76.50;;;;;;4925159;23;20490;-85
2022/03/22 10:45:21;;;;;;;22.02;16.15;;;26.70;75.40;;;;;;4887684;29;20081;-89
2022/03/22 10:47:47;;;;;;;17.02;13.88;;;26.80;72.60;;;;;;4882113;29;20468;-90
2022/03/22 10:50:13;;;;;;;18.55;13.57;;;27.00;73.00;;;;;;4882835;29;20395;-89
2022/03/22 10:52:59;;;;;;;17.00;13.27;;;27.20;72.70;;;;;;4883450;29;20033;-90
2022/03/22 10:55:27;;;;;;;17.75;14.77;;;27.50;71.30;;;;;;4882928;29;20044;-90
2022/03/22 10:57:56;;;;;;;20.45;15.60;;;27.60;71.20;;;;;;4883056;29;20140;-90
2022/03/22 11:00:23;;;;;;;17.23;14.88;;;27.70;69.80;;;;;;4883191;29;20039;-91
2022/03/22 11:02:51;;;;;;;15.98;13.45;;;27.80;69.40;;;;;;4884052;29;20029;-90
2022/03/22 11:05:20;;;;;;;18.55;13.68;;;27.90;68.90;;;;;;4883875;29;20392;-87
2022/03/22 11:07:48;;;;;;;16.80;14.77;;;28.00;68.60;;;;;;4873037;29;20049;-89
2022/03/22 11:10:25;;;;;;;16.10;13.07;;;28.20;68.30;;;;;;4846731;29;20052;-87
2022/03/22 11:12:52;;;;;;;15.18;13.07;;;28.30;67.50;;;;;;4880079;29;20053;-92
2022/03/22 11:15:18;;;;;;;16.15;13.18;;;28.30;67.50;;;;;;4880999;29;20101;-90
2022/03/22 11:17:47;;;;;;;15.50;12.82;;;28.50;66.10;;;;;;4877015;29;20112;-88
2022/03/22 11:20:14;;;;;;;15.30;13.65;;;28.50;66.30;;;;;;4879919;29;20039;-88
2022/03/22 11:22:54;;;;;;;16.48;13.65;;;28.60;66.10;;;;;;4872927;29;20097;-90
2022/03/22 11:25:37;;;;;;;20.67;14.77;;;28.70;66.00;;;;;;4859626;29;20564;-88
2022/03/22 11:28:08;;;;;;;15.82;13.75;;;28.60;65.20;;;;;;4876263;29;20052;-85
2022/03/22 11:30:37;;;;;;;19.75;14.95;;;28.60;65.00;;;;;;4881987;29;20060;-91
2022/03/22 11:36:01;;;;;;;17.08;12.88;;;28.80;63.60;;;;;;4883333;29;20044;-88
2022/03/22 11:38:45;;;;;;;14.85;12.45;;;28.70;62.50;;;;;;4871230;29;20078;-87
2022/03/22 11:44:22;;;;;;;20.52;15.68;;;29.00;62.20;;;;;;4863808;29;20060;-89
2022/03/22 11:47:11;;;;;;;20.88;16.63;;;29.00;61.30;;;;;;4875982;29;20483;-89
2022/03/22 11:49:55;;;;;;;24.98;17.75;;;28.80;60.20;;;;;;4862312;29;20075;-88
2022/03/22 11:52:25;;;;;;;18.77;14.88;;;28.30;60.90;;;;;;4863193;29;20511;-90
2022/03/22 11:55:04;;;;;;;16.48;13.43;;;28.20;61.00;;;;;;4882401;29;20475;-88
2022/03/22 11:58:00;;;;;;;16.80;13.93;;;28.30;61.30;;;;;;4875063;29;20056;-90
2022/03/22 12:00:56;;;;;;;17.70;14.13;;;28.50;61.10;;;;;;4889105;29;20040;-89
2022/03/22 12:03:27;;;;;;;15.00;13.38;;;28.60;60.70;;;;;;4878319;29;20520;-89
2022/03/22 12:05:53;;;;;;;14.80;13.13;;;28.70;61.10;;;;;;4884676;29;20036;-90
2022/03/22 12:08:19;;;;;;;18.23;14.98;;;28.90;60.50;;;;;;4874409;29;20029;-88
2022/03/22 12:10:46;;;;;;;16.55;14.40;;;29.10;60.00;;;;;;4885597;29;20034;-89
2022/03/22 12:13:13;;;;;;;16.42;12.30;;;29.10;61.10;;;;;;4871927;29;20480;-89
2022/03/22 12:15:38;;;;;;;16.58;12.93;;;29.30;61.00;;;;;;4898767;29;20029;-89
2022/03/22 12:18:04;;;;;;;16.88;12.82;;;29.40;60.90;;;;;;4884199;29;20096;-90
2022/03/22 12:20:30;;;;;;;13.68;12.18;;;29.50;60.30;;;;;;4864749;29;20037;-90
2022/03/22 12:23:00;;;;;;;16.17;12.48;;;29.60;59.90;;;;;;4859308;29;20044;-87
2022/03/22 12:25:31;;;;;;;17.15;13.25;;;29.80;60.20;;;;;;4872366;29;20222;-91
2022/03/22 12:28:02;;;;;;;14.80;12.23;;;30.00;59.80;;;;;;4875510;29;20041;-89
2022/03/22 12:30:33;;;;;;;13.55;11.95;;;30.20;60.40;;;;;;4866036;29;20178;-89
2022/03/22 12:33:06;;;;;;;15.43;12.15;;;30.30;60.00;;;;;;4873871;29;20038;-90
2022/03/22 12:35:31;;;;;;;14.23;12.45;;;30.50;59.70;;;;;;4872078;29;20101;-91
2022/03/22 12:37:57;;;;;;;14.43;11.73;;;30.60;59.70;;;;;;4882186;29;20575;-91
2022/03/22 12:40:23;;;;;;;15.07;11.93;;;30.60;59.10;;;;;;4879830;29;20057;-90
2022/03/22 12:42:51;;;;;;;16.58;12.60;;;30.60;57.80;;;;;;4875168;29;20054;-90
2022/03/22 12:45:19;;;;;;;16.00;13.25;;;30.50;57.70;;;;;;4862108;29;20148;-91
2022/03/22 12:47:45;;;;;;;16.60;14.23;;;30.60;58.00;;;;;;4888641;29;20041;-90
2022/03/22 12:50:12;;;;;;;20.33;16.42;;;30.30;57.10;;;;;;4880574;29;20044;-91
2022/03/22 12:52:39;;;;;;;17.42;14.50;;;30.20;55.30;;;;;;4868626;29;20041;-88
2022/03/22 12:55:07;;;;;;;21.13;17.05;;;29.70;56.60;;;;;;4887018;29;20093;-90
2022/03/22 12:57:40;;;;;;;15.40;12.98;;;29.40;55.60;;;;;;4872464;29;20113;-90
2022/03/22 13:00:07;;;;;;;14.95;12.55;;;29.20;57.10;;;;;;4866573;29;20037;-89
2022/03/22 13:02:36;;;;;;;15.32;12.10;;;29.40;58.10;;;;;;4883231;29;20145;-92
2022/03/22 13:05:01;;;;;;;13.20;11.35;;;29.70;56.60;;;;;;4869383;29;20030;-92
2022/03/22 13:07:28;;;;;;;12.60;10.20;;;29.90;57.60;;;;;;4880304;29;20037;-92